Terminal Aerodrome Forecast
Issued by NWS Glasgow, MT

Home | Current Version | Previous Version | Text Only | Print | Product List | Glossary On
Versions: 1 2 3 4 5 6 7 8 9 10 11 12 13 14
000
FTUS45 KGGW 011700
TAFGGW
TAF
KGGW 011720Z 0118/0218 27008KT P6SM BKN060
     FM020200 20006KT P6SM SCT250
     FM020600 21008KT P6SM BKN080
     FM021200 27008KT P6SM SCT250=

USA.gov is the U.S. government's official web portal to all federal, state and local government web resources and services.